createdAt,value
2023-12-18T00:00:56.044Z,1017.95
2023-12-18T00:01:54.953Z,1017.906
2023-12-18T00:02:56.000Z,1017.906
2023-12-18T00:03:55.023Z,1017.882
2023-12-18T00:04:56.011Z,1017.851
2023-12-18T00:05:55.958Z,1017.866
2023-12-18T00:06:58.232Z,1017.879
2023-12-18T00:07:55.023Z,1017.885
2023-12-18T00:08:55.017Z,1017.844
2023-12-18T00:09:55.968Z,1017.859
2023-12-18T00:10:56.000Z,1017.857
2023-12-18T00:11:56.037Z,1017.777
2023-12-18T00:12:55.023Z,1017.882
2023-12-18T00:13:54.989Z,1017.845
2023-12-18T00:14:55.991Z,1017.826
2023-12-18T00:15:55.990Z,1017.847
2023-12-18T00:16:56.074Z,1017.815
2023-12-18T00:17:55.146Z,1017.82
2023-12-18T00:18:59.428Z,1017.822
2023-12-18T00:19:54.984Z,1017.863
2023-12-18T00:20:56.006Z,1017.89
2023-12-18T00:21:56.028Z,1017.879
2023-12-18T00:22:54.999Z,1017.863
2023-12-18T00:23:55.989Z,1017.879
2023-12-18T00:24:55.055Z,1017.89
2023-12-18T00:25:56.039Z,1017.876
2023-12-18T00:26:56.059Z,1017.823
2023-12-18T00:27:55.093Z,1017.795
2023-12-18T00:28:56.042Z,1017.779
2023-12-18T00:29:55.059Z,1017.75
2023-12-18T00:30:56.129Z,1017.742
2023-12-18T00:31:56.083Z,1017.728
2023-12-18T00:32:55.129Z,1017.687
2023-12-18T00:33:56.164Z,1017.679
2023-12-18T00:34:55.081Z,1017.699
2023-12-18T00:35:56.067Z,1017.681
2023-12-18T00:36:55.074Z,1017.717
2023-12-18T00:37:55.080Z,1017.784
2023-12-18T00:38:56.111Z,1017.899
2023-12-18T00:39:55.054Z,1017.864
2023-12-18T00:40:56.071Z,1017.944
2023-12-18T00:41:55.047Z,1017.919
2023-12-18T00:42:55.094Z,1017.931
2023-12-18T00:43:56.104Z,1017.952
2023-12-18T00:44:55.052Z,1017.968
2023-12-18T00:45:56.084Z,1017.968
2023-12-18T00:46:55.113Z,1017.905
2023-12-18T00:47:59.486Z,1017.94
2023-12-18T00:48:55.188Z,1017.886
2023-12-18T00:49:55.232Z,1017.851
2023-12-18T00:50:56.106Z,1017.827
2023-12-18T00:51:55.066Z,1017.836
2023-12-18T00:52:56.061Z,1017.843
2023-12-18T00:53:55.066Z,1017.827
2023-12-18T00:54:55.114Z,1017.842
2023-12-18T00:55:56.114Z,1017.828
2023-12-18T00:56:55.071Z,1017.82
2023-12-18T00:57:56.115Z,1017.739
2023-12-18T00:58:55.076Z,1017.706
2023-12-18T00:59:55.115Z,1017.746
2023-12-18T01:00:56.229Z,1017.783
2023-12-18T01:01:55.088Z,1017.764
2023-12-18T01:02:56.159Z,1017.754
2023-12-18T01:03:55.224Z,1017.73
2023-12-18T01:04:56.132Z,1017.747
2023-12-18T01:05:56.159Z,1017.732
2023-12-18T01:06:55.136Z,1017.776
2023-12-18T01:07:56.146Z,1017.732
2023-12-18T01:08:55.106Z,1017.634
2023-12-18T01:09:56.152Z,1017.62
2023-12-18T01:10:56.138Z,1017.56
2023-12-18T01:11:55.156Z,1017.562
2023-12-18T01:12:56.176Z,1017.603
2023-12-18T01:13:55.155Z,1017.62
2023-12-18T01:14:56.174Z,1017.535
2023-12-18T01:15:56.166Z,1017.566
2023-12-18T01:16:59.470Z,1017.565
2023-12-18T01:17:55.184Z,1017.572
2023-12-18T01:18:55.246Z,1017.527
2023-12-18T01:19:56.229Z,1017.475
2023-12-18T01:20:56.163Z,1017.497
2023-12-18T01:21:56.117Z,1017.538
2023-12-18T01:23:02.169Z,1017.54
2023-12-18T01:23:55.175Z,1017.527
2023-12-18T01:24:56.178Z,1017.545
2023-12-18T01:25:56.148Z,1017.571
2023-12-18T01:26:56.159Z,1017.627
2023-12-18T01:27:55.222Z,1017.6
2023-12-18T01:28:55.144Z,1017.621
2023-12-18T01:29:56.186Z,1017.595
2023-12-18T01:30:56.276Z,1017.599
2023-12-18T01:31:56.192Z,1017.615
2023-12-18T01:32:55.268Z,1017.654
2023-12-18T01:33:56.268Z,1017.628
2023-12-18T01:34:55.159Z,1017.658
2023-12-18T01:35:56.204Z,1017.639
2023-12-18T01:36:56.223Z,1017.702
2023-12-18T01:37:55.213Z,1017.682
2023-12-18T01:38:56.230Z,1017.742
2023-12-18T01:39:55.205Z,1017.73
2023-12-18T01:40:56.215Z,1017.711
2023-12-18T01:41:56.219Z,1017.729
2023-12-18T01:42:55.230Z,1017.737
2023-12-18T01:43:56.222Z,1017.731
2023-12-18T01:44:55.227Z,1017.729
2023-12-18T01:46:00.809Z,1017.702
2023-12-18T01:46:55.187Z,1017.726
2023-12-18T01:47:55.314Z,1017.753
2023-12-18T01:48:56.308Z,1017.725
2023-12-18T01:49:55.215Z,1017.732
2023-12-18T01:50:56.232Z,1017.794
2023-12-18T01:51:55.235Z,1017.802
2023-12-18T01:52:55.247Z,1017.798
2023-12-18T01:53:56.220Z,1017.814
2023-12-18T01:54:55.234Z,1017.855
2023-12-18T01:55:56.226Z,1017.911
2023-12-18T01:56:55.237Z,1017.849
2023-12-18T01:57:55.269Z,1017.912
2023-12-18T01:58:56.248Z,1017.906
2023-12-18T01:59:55.247Z,1017.941
2023-12-18T02:00:56.489Z,1017.979
2023-12-18T02:01:55.231Z,1017.96
2023-12-18T02:02:56.296Z,1017.929
2023-12-18T02:03:55.342Z,1017.969
2023-12-18T02:04:55.295Z,1017.942
2023-12-18T02:05:56.214Z,1017.892
2023-12-18T02:06:55.268Z,1017.96
2023-12-18T02:07:56.260Z,1017.986
2023-12-18T02:08:55.276Z,1018.03
2023-12-18T02:09:55.276Z,1018.03
2023-12-18T02:10:56.255Z,1018.105
2023-12-18T02:11:55.269Z,1018.102
2023-12-18T02:12:56.287Z,1018.093
2023-12-18T02:13:55.291Z,1018.061
2023-12-18T02:14:59.713Z,1018.037
2023-12-18T02:15:56.281Z,1018.057
2023-12-18T02:16:55.289Z,1018.025
2023-12-18T02:17:56.342Z,1018.001
2023-12-18T02:18:55.356Z,1018.034
2023-12-18T02:20:03.536Z,1018.013
2023-12-18T02:20:56.313Z,1018.008
2023-12-18T02:21:55.260Z,1018.042
2023-12-18T02:22:56.305Z,1018.059
2023-12-18T02:23:55.336Z,1018.048
2023-12-18T02:24:56.265Z,1018.03
2023-12-18T02:25:56.265Z,1018.001
2023-12-18T02:26:55.312Z,1017.945
2023-12-18T02:27:56.277Z,1017.99
2023-12-18T02:28:55.308Z,1017.893
2023-12-18T02:29:56.310Z,1017.929
2023-12-18T02:31:08.304Z,1017.912
2023-12-18T02:31:58.534Z,1017.892
2023-12-18T02:32:55.404Z,1017.896
2023-12-18T02:33:55.451Z,1017.892
2023-12-18T02:34:56.388Z,1017.883
2023-12-18T02:35:56.317Z,1017.894
2023-12-18T02:36:56.280Z,1017.951
2023-12-18T02:37:55.356Z,1017.922
2023-12-18T02:38:55.314Z,1017.893
2023-12-18T02:39:56.323Z,1017.906
2023-12-18T02:40:56.776Z,1017.871
2023-12-18T02:41:56.361Z,1017.863
2023-12-18T02:42:55.351Z,1017.881
2023-12-18T02:43:59.640Z,1017.907
2023-12-18T02:44:55.330Z,1017.93
2023-12-18T02:45:56.330Z,1017.922
2023-12-18T02:46:56.363Z,1017.925
2023-12-18T02:47:55.432Z,1017.868
2023-12-18T02:48:56.401Z,1017.856
2023-12-18T02:49:55.330Z,1017.836
2023-12-18T02:50:56.356Z,1017.819
2023-12-18T02:51:56.358Z,1017.839
2023-12-18T02:52:55.365Z,1017.82
2023-12-18T02:53:56.389Z,1017.797
2023-12-18T02:54:55.378Z,1017.807
2023-12-18T02:55:56.337Z,1017.807
2023-12-18T02:56:56.390Z,1017.825
2023-12-18T02:57:55.338Z,1017.821
2023-12-18T02:58:56.379Z,1017.758
2023-12-18T02:59:55.333Z,1017.747
2023-12-18T03:01:00.056Z,1017.737
2023-12-18T03:01:55.339Z,1017.703
2023-12-18T03:02:55.421Z,1017.672
2023-12-18T03:03:56.539Z,1017.672
2023-12-18T03:04:55.435Z,1017.655
2023-12-18T03:05:56.474Z,1017.65
2023-12-18T03:06:55.354Z,1017.66
2023-12-18T03:07:55.374Z,1017.714
2023-12-18T03:08:56.378Z,1017.631
2023-12-18T03:09:55.392Z,1017.662
2023-12-18T03:10:56.383Z,1017.584
2023-12-18T03:11:55.361Z,1017.541
2023-12-18T03:12:59.644Z,1017.574
2023-12-18T03:13:55.398Z,1017.542
2023-12-18T03:14:55.411Z,1017.543
2023-12-18T03:15:56.369Z,1017.559
2023-12-18T03:16:55.414Z,1017.575
2023-12-18T03:17:56.478Z,1017.62
2023-12-18T03:18:55.484Z,1017.614
2023-12-18T03:19:55.381Z,1017.609
2023-12-18T03:20:56.409Z,1017.637
2023-12-18T03:21:55.420Z,1017.67
2023-12-18T03:22:56.384Z,1017.618
2023-12-18T03:23:55.430Z,1017.672
2023-12-18T03:24:55.484Z,1017.638
2023-12-18T03:25:56.447Z,1017.667
2023-12-18T03:26:55.402Z,1017.638
2023-12-18T03:27:56.481Z,1017.602
2023-12-18T03:28:55.401Z,1017.589
2023-12-18T03:29:56.430Z,1017.594
2023-12-18T03:30:56.481Z,1017.547
2023-12-18T03:31:55.410Z,1017.557
2023-12-18T03:32:56.464Z,1017.521
2023-12-18T03:33:55.452Z,1017.452
2023-12-18T03:34:56.405Z,1017.398
2023-12-18T03:35:56.438Z,1017.43
2023-12-18T03:36:55.472Z,1017.451
2023-12-18T03:37:56.456Z,1017.456
2023-12-18T03:38:55.421Z,1017.362
2023-12-18T03:39:56.456Z,1017.374
2023-12-18T03:40:56.406Z,1017.325
2023-12-18T03:42:03.959Z,1017.345
2023-12-18T03:42:55.419Z,1017.297
2023-12-18T03:43:55.465Z,1017.307
2023-12-18T03:44:56.492Z,1017.314
2023-12-18T03:45:56.429Z,1017.356
2023-12-18T03:46:56.475Z,1017.375
2023-12-18T03:47:55.531Z,1017.323
2023-12-18T03:48:55.544Z,1017.309
2023-12-18T03:49:56.466Z,1017.267
2023-12-18T03:50:56.491Z,1017.214
2023-12-18T03:51:56.480Z,1017.239
2023-12-18T03:52:55.502Z,1017.222
2023-12-18T03:53:55.454Z,1017.296
2023-12-18T03:54:56.451Z,1017.322
2023-12-18T03:55:56.494Z,1017.278
2023-12-18T03:56:56.481Z,1017.286
2023-12-18T03:57:55.587Z,1017.271
2023-12-18T03:58:56.452Z,1017.278
2023-12-18T03:59:55.506Z,1017.286
2023-12-18T04:00:56.546Z,1017.285
2023-12-18T04:01:56.517Z,1017.277
2023-12-18T04:02:55.528Z,1017.289
2023-12-18T04:03:56.551Z,1017.263
2023-12-18T04:04:55.564Z,1017.193
2023-12-18T04:05:56.503Z,1017.281
2023-12-18T04:06:56.479Z,1017.243
2023-12-18T04:07:55.516Z,1017.302
2023-12-18T04:08:56.519Z,1017.308
2023-12-18T04:09:55.505Z,1017.284
2023-12-18T04:10:59.819Z,1017.25
2023-12-18T04:11:55.542Z,1017.234
2023-12-18T04:12:55.532Z,1017.218
2023-12-18T04:13:56.513Z,1017.228
2023-12-18T04:14:55.539Z,1017.183
2023-12-18T04:15:58.949Z,1017.172
2023-12-18T04:16:55.485Z,1017.206
2023-12-18T04:17:55.638Z,1017.128
2023-12-18T04:18:56.622Z,1017.13
2023-12-18T04:19:55.508Z,1017.167
2023-12-18T04:20:56.505Z,1017.198
2023-12-18T04:21:55.557Z,1017.209
2023-12-18T04:22:55.558Z,1017.187
2023-12-18T04:23:56.613Z,1017.233
2023-12-18T04:24:55.597Z,1017.195
2023-12-18T04:25:56.570Z,1017.204
2023-12-18T04:26:55.561Z,1017.176
2023-12-18T04:27:56.687Z,1017.226
2023-12-18T04:28:55.549Z,1017.226
2023-12-18T04:29:55.579Z,1017.231
2023-12-18T04:30:56.645Z,1017.276
2023-12-18T04:31:55.536Z,1017.273
2023-12-18T04:32:56.658Z,1017.287
2023-12-18T04:33:55.680Z,1017.299
2023-12-18T04:34:55.540Z,1017.364
2023-12-18T04:35:56.571Z,1017.368
2023-12-18T04:36:55.748Z,1017.398
2023-12-18T04:37:56.628Z,1017.381
2023-12-18T04:38:55.532Z,1017.4
2023-12-18T04:39:59.844Z,1017.37
2023-12-18T04:40:56.570Z,1017.417
2023-12-18T04:41:55.595Z,1017.375
2023-12-18T04:42:56.626Z,1017.442
2023-12-18T04:43:55.542Z,1017.397
2023-12-18T04:44:56.548Z,1017.419
2023-12-18T04:45:56.546Z,1017.479
2023-12-18T04:46:55.602Z,1017.502
2023-12-18T04:47:56.643Z,1017.515
2023-12-18T04:48:55.766Z,1017.466
2023-12-18T04:49:56.605Z,1017.429
2023-12-18T04:50:56.612Z,1017.432
2023-12-18T04:51:55.703Z,1017.469
2023-12-18T04:52:56.592Z,1017.434
2023-12-18T04:53:55.613Z,1017.437
2023-12-18T04:54:56.614Z,1017.472
2023-12-18T04:55:56.604Z,1017.465
2023-12-18T04:56:58.936Z,1017.458
2023-12-18T04:57:55.612Z,1017.481
2023-12-18T04:58:55.627Z,1017.505
2023-12-18T04:59:56.649Z,1017.465
2023-12-18T05:01:07.195Z,1017.512
2023-12-18T05:01:56.619Z,1017.507
2023-12-18T05:02:55.643Z,1017.461
2023-12-18T05:03:55.708Z,1017.499
2023-12-18T05:04:56.716Z,1017.544
2023-12-18T05:05:56.634Z,1017.528
2023-12-18T05:06:56.604Z,1017.547
2023-12-18T05:07:55.668Z,1017.505
2023-12-18T05:08:59.922Z,1017.521
2023-12-18T05:09:55.709Z,1017.545
2023-12-18T05:10:56.618Z,1017.508
2023-12-18T05:11:56.665Z,1017.528
2023-12-18T05:12:55.669Z,1017.523
2023-12-18T05:13:56.611Z,1017.539
2023-12-18T05:14:55.652Z,1017.576
2023-12-18T05:15:56.717Z,1017.548
2023-12-18T05:16:56.658Z,1017.506
2023-12-18T05:17:55.698Z,1017.543
2023-12-18T05:18:56.730Z,1017.478
2023-12-18T05:19:55.633Z,1017.46
2023-12-18T05:20:56.666Z,1017.459
2023-12-18T05:21:56.708Z,1017.424
2023-12-18T05:22:55.681Z,1017.364
2023-12-18T05:23:56.635Z,1017.351
2023-12-18T05:24:55.684Z,1017.374
2023-12-18T05:26:16.063Z,1017.379
2023-12-18T05:26:55.648Z,1017.324
2023-12-18T05:27:55.700Z,1017.344
2023-12-18T05:28:56.665Z,1017.307
2023-12-18T05:29:55.647Z,1017.324
2023-12-18T05:30:56.755Z,1017.297
2023-12-18T05:31:55.665Z,1017.327
2023-12-18T05:32:55.715Z,1017.33
2023-12-18T05:33:56.840Z,1017.334
2023-12-18T05:34:55.684Z,1017.371
2023-12-18T05:35:56.723Z,1017.345
2023-12-18T05:36:55.692Z,1017.334
2023-12-18T05:38:00.003Z,1017.366
2023-12-18T05:38:55.717Z,1017.392
2023-12-18T05:39:55.720Z,1017.369
2023-12-18T05:40:56.699Z,1017.374
2023-12-18T05:41:55.697Z,1017.333
2023-12-18T05:42:56.758Z,1017.306
2023-12-18T05:43:55.690Z,1017.367
2023-12-18T05:44:55.708Z,1017.276
2023-12-18T05:45:56.712Z,1017.306
2023-12-18T05:46:55.687Z,1017.34
2023-12-18T05:47:56.761Z,1017.326
2023-12-18T05:48:55.811Z,1017.388
2023-12-18T05:49:55.817Z,1017.398
2023-12-18T05:50:56.721Z,1017.353
2023-12-18T05:51:55.694Z,1017.368
2023-12-18T05:52:56.707Z,1017.335
2023-12-18T05:53:55.691Z,1017.364
2023-12-18T05:54:56.735Z,1017.387
2023-12-18T05:55:56.745Z,1017.384
2023-12-18T05:56:55.756Z,1017.372
2023-12-18T05:57:56.722Z,1017.405
2023-12-18T05:58:55.718Z,1017.337
2023-12-18T05:59:56.731Z,1017.34
2023-12-18T06:00:59.537Z,1017.346
2023-12-18T06:01:55.723Z,1017.356
2023-12-18T06:02:56.710Z,1017.275
2023-12-18T06:03:55.896Z,1017.294
2023-12-18T06:04:56.770Z,1017.26
2023-12-18T06:05:56.866Z,1017.273
2023-12-18T06:07:00.059Z,1017.285
2023-12-18T06:07:55.726Z,1017.329
2023-12-18T06:08:55.803Z,1017.304
2023-12-18T06:09:56.778Z,1017.273
2023-12-18T06:10:56.759Z,1017.284
2023-12-18T06:11:56.751Z,1017.283
2023-12-18T06:12:55.885Z,1017.293
2023-12-18T06:13:55.749Z,1017.32
2023-12-18T06:14:56.777Z,1017.353
2023-12-18T06:15:56.806Z,1017.253
2023-12-18T06:16:56.791Z,1017.249
2023-12-18T06:17:55.861Z,1017.252
2023-12-18T06:18:55.888Z,1017.249
2023-12-18T06:19:56.789Z,1017.254
2023-12-18T06:20:56.767Z,1017.253
2023-12-18T06:21:56.842Z,1017.293
2023-12-18T06:22:55.764Z,1017.251
2023-12-18T06:23:56.791Z,1017.303
2023-12-18T06:24:55.811Z,1017.274
2023-12-18T06:25:57.463Z,1017.306
2023-12-18T06:26:56.765Z,1017.27
2023-12-18T06:27:55.808Z,1017.285
2023-12-18T06:28:56.762Z,1017.286
2023-12-18T06:29:55.821Z,1017.309
2023-12-18T06:30:56.845Z,1017.303
2023-12-18T06:31:56.846Z,1017.267
2023-12-18T06:32:55.839Z,1017.23
2023-12-18T06:33:57.022Z,1017.193
2023-12-18T06:34:55.985Z,1017.214
2023-12-18T06:36:00.107Z,1017.178
2023-12-18T06:36:55.782Z,1017.226
2023-12-18T06:37:55.845Z,1017.226
2023-12-18T06:38:56.867Z,1017.251
2023-12-18T06:39:55.836Z,1017.285
2023-12-18T06:40:56.825Z,1017.25
2023-12-18T06:41:55.843Z,1017.301
2023-12-18T06:42:55.909Z,1017.33
2023-12-18T06:43:56.869Z,1017.31
2023-12-18T06:44:55.849Z,1017.26
2023-12-18T06:45:56.825Z,1017.291
2023-12-18T06:46:55.816Z,1017.261
2023-12-18T06:47:55.980Z,1017.273
2023-12-18T06:48:56.956Z,1017.238
2023-12-18T06:49:55.829Z,1017.183
2023-12-18T06:50:56.840Z,1017.189
2023-12-18T06:51:55.858Z,1017.137
2023-12-18T06:53:00.190Z,1017.215
2023-12-18T06:53:55.863Z,1017.16
2023-12-18T06:54:55.871Z,1017.184
2023-12-18T06:55:56.868Z,1017.189
2023-12-18T06:56:55.888Z,1017.162
2023-12-18T06:57:56.898Z,1017.219
2023-12-18T06:58:55.891Z,1017.261
2023-12-18T06:59:55.835Z,1017.269
2023-12-18T07:00:56.936Z,1017.251
2023-12-18T07:01:55.890Z,1017.245
2023-12-18T07:02:56.916Z,1017.168
2023-12-18T07:03:55.874Z,1017.205
2023-12-18T07:05:04.398Z,1017.203
2023-12-18T07:05:56.896Z,1017.175
2023-12-18T07:06:55.903Z,1017.156
2023-12-18T07:07:56.918Z,1017.187
2023-12-18T07:08:55.926Z,1017.153
2023-12-18T07:09:56.994Z,1017.187
2023-12-18T07:10:56.876Z,1017.175
2023-12-18T07:11:55.868Z,1017.176
2023-12-18T07:12:56.951Z,1017.212
2023-12-18T07:13:55.862Z,1017.198
2023-12-18T07:14:56.910Z,1017.23
2023-12-18T07:15:56.909Z,1017.251
2023-12-18T07:16:55.923Z,1017.302
2023-12-18T07:17:56.999Z,1017.3
2023-12-18T07:18:55.986Z,1017.297
2023-12-18T07:19:56.883Z,1017.266
2023-12-18T07:20:56.878Z,1017.284
2023-12-18T07:21:56.896Z,1017.271
2023-12-18T07:22:55.930Z,1017.318
2023-12-18T07:23:55.895Z,1017.353
2023-12-18T07:24:56.885Z,1017.356
2023-12-18T07:26:07.872Z,1017.372
2023-12-18T07:26:56.911Z,1017.356
2023-12-18T07:27:55.892Z,1017.326
2023-12-18T07:28:55.946Z,1017.379
2023-12-18T07:29:56.950Z,1017.344
2023-12-18T07:30:56.987Z,1017.411
2023-12-18T07:31:56.907Z,1017.425
2023-12-18T07:32:56.046Z,1017.436
2023-12-18T07:34:00.422Z,1017.409
2023-12-18T07:34:56.036Z,1017.452
2023-12-18T07:35:56.914Z,1017.441
2023-12-18T07:36:56.916Z,1017.478
2023-12-18T07:37:55.961Z,1017.427
2023-12-18T07:38:56.994Z,1017.377
2023-12-18T07:39:55.966Z,1017.377
2023-12-18T07:40:56.970Z,1017.365
2023-12-18T07:41:56.938Z,1017.404
2023-12-18T07:42:56.052Z,1017.409
2023-12-18T07:43:56.997Z,1017.447
2023-12-18T07:44:55.970Z,1017.422
2023-12-18T07:45:57.045Z,1017.478
2023-12-18T07:46:56.941Z,1017.507
2023-12-18T07:47:56.040Z,1017.462
2023-12-18T07:48:57.134Z,1017.408
2023-12-18T07:49:56.055Z,1017.415
2023-12-18T07:50:56.948Z,1017.403
2023-12-18T07:51:55.944Z,1017.362
2023-12-18T07:52:55.995Z,1017.312
2023-12-18T07:53:56.990Z,1017.357
2023-12-18T07:54:55.994Z,1017.35
2023-12-18T07:55:56.973Z,1017.351
2023-12-18T07:56:55.951Z,1017.402
2023-12-18T07:57:56.008Z,1017.462
2023-12-18T07:58:56.987Z,1017.408
2023-12-18T07:59:56.004Z,1017.39
2023-12-18T08:00:57.091Z,1017.402
2023-12-18T08:01:55.958Z,1017.393
2023-12-18T08:03:01.142Z,1017.406
2023-12-18T08:03:56.064Z,1017.385
2023-12-18T08:04:55.992Z,1017.414
2023-12-18T08:05:56.987Z,1017.439
2023-12-18T08:06:55.979Z,1017.434
2023-12-18T08:07:57.034Z,1017.48
2023-12-18T08:08:56.031Z,1017.51
2023-12-18T08:09:56.036Z,1017.447
2023-12-18T08:10:56.998Z,1017.412
2023-12-18T08:11:56.030Z,1017.381
2023-12-18T08:12:57.032Z,1017.487
2023-12-18T08:13:56.005Z,1017.494
2023-12-18T08:14:56.033Z,1017.473
2023-12-18T08:15:57.022Z,1017.486
2023-12-18T08:16:56.001Z,1017.453
2023-12-18T08:17:57.121Z,1017.441
2023-12-18T08:18:56.108Z,1017.449
2023-12-18T08:19:57.015Z,1017.462
2023-12-18T08:20:57.070Z,1017.436
2023-12-18T08:21:56.110Z,1017.487
2023-12-18T08:22:57.046Z,1017.461
2023-12-18T08:23:56.070Z,1017.496
2023-12-18T08:24:57.006Z,1017.5
2023-12-18T08:25:57.024Z,1017.433
2023-12-18T08:26:56.064Z,1017.454
2023-12-18T08:27:57.124Z,1017.405
2023-12-18T08:28:56.024Z,1017.442
2023-12-18T08:29:57.070Z,1017.457
2023-12-18T08:30:57.116Z,1017.453
2023-12-18T08:32:00.488Z,1017.412
2023-12-18T08:32:56.032Z,1017.399
2023-12-18T08:33:56.206Z,1017.371
2023-12-18T08:34:57.096Z,1017.353
2023-12-18T08:35:57.052Z,1017.302
2023-12-18T08:36:57.028Z,1017.324
2023-12-18T08:37:56.090Z,1017.282
2023-12-18T08:38:56.086Z,1017.321
2023-12-18T08:39:57.171Z,1017.278
2023-12-18T08:41:08.894Z,1017.322
2023-12-18T08:41:57.049Z,1017.338
2023-12-18T08:42:56.121Z,1017.369
2023-12-18T08:44:03.121Z,1017.3
2023-12-18T08:44:58.226Z,1017.315
2023-12-18T08:45:57.078Z,1017.373
2023-12-18T08:46:57.108Z,1017.266
2023-12-18T08:47:56.230Z,1017.29
2023-12-18T08:49:09.130Z,1017.219
2023-12-18T08:49:56.082Z,1017.28
2023-12-18T08:50:57.109Z,1017.234
2023-12-18T08:51:57.159Z,1017.229
2023-12-18T08:52:56.075Z,1017.176
2023-12-18T08:53:57.084Z,1017.183
2023-12-18T08:54:56.125Z,1017.124
2023-12-18T08:55:57.099Z,1017.108
2023-12-18T08:56:57.152Z,1017.114
2023-12-18T08:57:56.132Z,1017.072
2023-12-18T08:58:57.223Z,1017.057
2023-12-18T08:59:56.096Z,1017.05
2023-12-18T09:01:00.590Z,1017.016
2023-12-18T09:01:56.100Z,1016.976
2023-12-18T09:02:56.150Z,1017.005
2023-12-18T09:03:57.278Z,1016.963
2023-12-18T09:04:56.102Z,1016.965
2023-12-18T09:05:57.132Z,1016.967
2023-12-18T09:06:56.145Z,1016.99
2023-12-18T09:07:56.105Z,1016.979
2023-12-18T09:08:57.175Z,1016.985
2023-12-18T09:09:56.167Z,1016.994
2023-12-18T09:10:57.115Z,1017.026
2023-12-18T09:11:56.157Z,1016.987
2023-12-18T09:12:56.198Z,1017.068
2023-12-18T09:13:57.147Z,1017.015
2023-12-18T09:14:56.164Z,1017.018
2023-12-18T09:15:57.157Z,1017.008
2023-12-18T09:16:56.138Z,1016.951
2023-12-18T09:17:59.439Z,1016.938
2023-12-18T09:18:56.161Z,1017.037
2023-12-18T09:19:56.167Z,1017.004
2023-12-18T09:20:57.158Z,1016.933
2023-12-18T09:21:56.203Z,1016.904
2023-12-18T09:22:57.165Z,1016.925
2023-12-18T09:23:56.183Z,1016.921
2023-12-18T09:24:56.217Z,1016.925
2023-12-18T09:25:57.168Z,1016.879
2023-12-18T09:26:56.140Z,1016.946
2023-12-18T09:27:57.202Z,1016.943
2023-12-18T09:28:56.179Z,1016.885
2023-12-18T09:30:00.503Z,1016.899
2023-12-18T09:30:57.260Z,1016.935
2023-12-18T09:31:56.184Z,1016.941
2023-12-18T09:32:57.244Z,1016.955
2023-12-18T09:33:56.289Z,1016.921
2023-12-18T09:34:57.335Z,1016.915
2023-12-18T09:35:58.770Z,1016.912
2023-12-18T09:36:56.229Z,1016.921
2023-12-18T09:37:57.192Z,1016.934
2023-12-18T09:38:56.199Z,1016.9
2023-12-18T09:39:57.236Z,1016.898
2023-12-18T09:40:57.253Z,1016.876
2023-12-18T09:41:56.227Z,1016.876
2023-12-18T09:42:57.270Z,1016.864
2023-12-18T09:43:56.189Z,1016.853
2023-12-18T09:44:57.198Z,1016.856
2023-12-18T09:45:57.271Z,1016.858
2023-12-18T09:46:57.184Z,1016.87
2023-12-18T09:47:56.271Z,1016.818
2023-12-18T09:48:56.253Z,1016.85
2023-12-18T09:49:57.266Z,1016.778
2023-12-18T09:50:57.205Z,1016.775
2023-12-18T09:51:57.268Z,1016.792
2023-12-18T09:52:56.206Z,1016.756
2023-12-18T09:53:56.255Z,1016.788
2023-12-18T09:54:57.237Z,1016.81
2023-12-18T09:55:57.202Z,1016.791
2023-12-18T09:56:57.206Z,1016.78
2023-12-18T09:57:56.248Z,1016.767
2023-12-18T09:59:03.104Z,1016.762
2023-12-18T09:59:56.206Z,1016.768
2023-12-18T10:00:57.303Z,1016.714
2023-12-18T10:01:57.224Z,1016.726
2023-12-18T10:02:56.301Z,1016.808
2023-12-18T10:03:57.557Z,1016.745
2023-12-18T10:04:56.217Z,1016.763
2023-12-18T10:05:57.256Z,1016.809
2023-12-18T10:06:57.277Z,1016.827
2023-12-18T10:07:56.223Z,1016.869
2023-12-18T10:08:57.280Z,1016.825
2023-12-18T10:09:56.325Z,1016.89
2023-12-18T10:10:57.218Z,1016.851
2023-12-18T10:11:57.293Z,1016.838
2023-12-18T10:12:56.344Z,1016.809
2023-12-18T10:13:57.295Z,1016.907
2023-12-18T10:14:56.287Z,1016.898
2023-12-18T10:15:57.417Z,1016.911
2023-12-18T10:16:56.249Z,1016.914
2023-12-18T10:17:56.326Z,1016.932
2023-12-18T10:18:57.307Z,1016.901
2023-12-18T10:19:56.269Z,1016.933
2023-12-18T10:20:57.307Z,1016.934
2023-12-18T10:21:56.287Z,1016.906
2023-12-18T10:22:56.252Z,1016.953
2023-12-18T10:23:57.335Z,1016.923
2023-12-18T10:24:56.294Z,1016.969
2023-12-18T10:25:57.312Z,1016.991
2023-12-18T10:26:56.305Z,1016.915
2023-12-18T10:28:00.657Z,1016.962
2023-12-18T10:28:56.274Z,1016.958
2023-12-18T10:29:56.338Z,1016.935
2023-12-18T10:30:57.364Z,1016.928
2023-12-18T10:31:56.302Z,1016.93
2023-12-18T10:32:57.419Z,1016.943
2023-12-18T10:33:56.415Z,1016.896
2023-12-18T10:34:56.284Z,1016.873
2023-12-18T10:35:57.313Z,1016.895
2023-12-18T10:36:56.314Z,1016.817
2023-12-18T10:37:57.407Z,1016.878
2023-12-18T10:38:56.293Z,1016.859
2023-12-18T10:39:56.364Z,1016.877
2023-12-18T10:40:57.389Z,1016.841
2023-12-18T10:41:56.356Z,1016.82
2023-12-18T10:42:57.364Z,1016.779
2023-12-18T10:43:56.308Z,1016.809
2023-12-18T10:44:59.141Z,1016.783
2023-12-18T10:45:57.371Z,1016.771
2023-12-18T10:46:56.331Z,1016.721
2023-12-18T10:47:57.358Z,1016.708
2023-12-18T10:48:56.406Z,1016.712
2023-12-18T10:49:57.388Z,1016.69
2023-12-18T10:50:57.361Z,1016.699
2023-12-18T10:51:56.324Z,1016.665
2023-12-18T10:52:57.314Z,1016.661
2023-12-18T10:53:56.317Z,1016.654
2023-12-18T10:54:57.384Z,1016.616
2023-12-18T10:55:57.353Z,1016.6
2023-12-18T10:57:00.892Z,1016.571
2023-12-18T10:57:56.330Z,1016.611
2023-12-18T10:58:56.336Z,1016.591
2023-12-18T10:59:57.392Z,1016.568
2023-12-18T11:01:07.968Z,1016.55
2023-12-18T11:01:57.373Z,1016.52
2023-12-18T11:02:56.462Z,1016.547
2023-12-18T11:03:56.524Z,1016.487
2023-12-18T11:04:57.403Z,1016.416
2023-12-18T11:05:57.405Z,1016.473
2023-12-18T11:06:57.528Z,1016.445
2023-12-18T11:07:56.356Z,1016.363
2023-12-18T11:08:56.361Z,1016.408
2023-12-18T11:09:57.458Z,1016.346
2023-12-18T11:10:57.374Z,1016.393
2023-12-18T11:11:57.399Z,1016.32
2023-12-18T11:12:56.412Z,1016.278
2023-12-18T11:14:12.103Z,1016.258
2023-12-18T11:14:56.458Z,1016.254
2023-12-18T11:15:57.412Z,1016.262
2023-12-18T11:16:57.417Z,1016.21
2023-12-18T11:17:56.541Z,1016.253
2023-12-18T11:19:08.488Z,1016.194
2023-12-18T11:19:57.466Z,1016.236
2023-12-18T11:20:57.384Z,1016.251
2023-12-18T11:21:57.396Z,1016.232
2023-12-18T11:22:56.421Z,1016.193
2023-12-18T11:24:04.510Z,1016.185
2023-12-18T11:24:57.459Z,1016.196
2023-12-18T11:26:04.664Z,1016.178
2023-12-18T11:26:56.423Z,1016.117
2023-12-18T11:27:56.556Z,1016.122
2023-12-18T11:28:57.439Z,1016.141
2023-12-18T11:29:56.449Z,1016.159
2023-12-18T11:30:57.470Z,1016.098
2023-12-18T11:31:56.417Z,1016.166
2023-12-18T11:32:56.491Z,1016.127
2023-12-18T11:33:57.611Z,1016.167
2023-12-18T11:34:56.487Z,1016.166
2023-12-18T11:35:58.649Z,1016.139
2023-12-18T11:36:56.526Z,1016.136
2023-12-18T11:37:56.427Z,1016.146
2023-12-18T11:38:57.410Z,1016.115
2023-12-18T11:39:56.481Z,1016.136
2023-12-18T11:40:57.462Z,1016.086
2023-12-18T11:41:56.457Z,1016.1
2023-12-18T11:42:57.539Z,1016.075
2023-12-18T11:43:56.431Z,1015.982
2023-12-18T11:44:56.502Z,1015.96
2023-12-18T11:46:03.584Z,1015.964
2023-12-18T11:46:57.442Z,1015.941